Roscommon, MI

11:29 AM EST on December 25, 2014 (GMT -0500)
Higgins Lake Point Detroit | Change Station
CLOSE
Current Station
Personal Weather Station
Location: Roscommon, MI
Elevation: 1165 ft
Nearby Weather Stations

Elev 1165 ft 44.47 °N, 84.71 °W | Updated 3 seconds ago

Overcast
Overcast
33.4 °F
Feels Like 33 °F
N
0.0
Wind Variable Wind from SSE
Gusts 6.3 mph

Today
High -- | Low -- °F
--% Chance of Precip.
Yesterday
High -- | Low -- °F
Precip. -- in
8:13 AM 5:04 PM
Waxing Crescent, 17% visible
Pressure 29.81 in
Visibility 10.0 miles
Clouds Overcast 2100 ft
Windchill 33 °F
Dew Point 31 °F
Humidity 90%
Rainfall 0.00 in
Snow Depth Not available.
UV 0 out of 12
Pollen .10 out of 12
Air Quality Not available.
Flu Activity Not available.
METAR KHTL 251553Z AUTO 26013G20KT 10SM OVC021 01/M03 A2978 RMK AO2 SLP095 T00111028

More Conditions Fewer Conditions

Pressure 29.81 in
Visibility 10.0 miles
Clouds Overcast 2100 ft
Windchill 33 °F
Dew Point 31 °F
Humidity 90%
Rainfall 0.00 in
Snow Depth Not available.
UV 0 out of 12
Pollen .10 out of 12
Air Quality Not available.
Flu Activity Not available.
METAR KHTL 251553Z AUTO 26013G20KT 10SM OVC021 01/M03 A2978 RMK AO2 SLP095 T00111028

More Conditions Fewer Conditions

Nowcast | as of 11:00 am EST on December 25, 2014

At 12 PM...cloudy. Scattered flurries. Temperature 33. West winds 13 mph. At 2 PM...cloudy. Temperature 34. Southwest winds 13 mph. At 4 PM...cloudy. Temperature 34. Southwest winds 12 mph. At 6 PM...cloudy. Temperature 32. Southwest winds 10 mph.

×

10-Day Weather Forecast

Almanac

Astronomy

Dec. 25, 2014 Rise Set
Actual Time
Civil Twilight
Nautical Twilight
Astronomical Twilight
Moon
Length of Visible Light
Length of Day
Tomorrow will be .
, % of the Moon is Illuminated

Today's Extremes

State Highs State Lows

Community

WunderPhotos

Upload Photos

1,780,330 photos uploaded!

WunderBlogs® & News

Nearby

Air Quality

  Air Quality AQ Index Pollutant
Not available.

Snow Depth

Station Depth Elevation

Earthquake Activity

City Distance Mag. Time & Date
Minimum magnitude displayed is 2.5.

Coastal Water Temperatures

Place Temperature

Nearby Weather Stations